Time;durP1;ratioP1;P1;durP2;ratioP2;P2;SDS_P1;SDS_P2;PMS_P1;PMS_P2;Temp;Humidity;BMP_temperature;BMP_pressure;BME280_temperature;BME280_humidity;BME280_pressure;Samples;Min_cycle;Max_cycle;Signal;HPM_P1;HPM_P2
2021/11/26 00:01:37;;;;;;;53.17;27.27;;;;;;;;;;4975772;28;20576;-66
2021/11/26 00:04:06;;;;;;;54.20;27.50;;;;;;;;;;4975929;28;20043;-66
2021/11/26 00:06:33;;;;;;;48.17;26.52;;;;;;;;;;4975893;28;20061;-65
2021/11/26 00:09:00;;;;;;;53.63;26.83;;;;;;;;;;4975892;28;20513;-66
2021/11/26 00:11:27;;;;;;;53.35;25.77;;;;;;;;;;4974541;28;20101;-66
2021/11/26 00:14:17;;;;;;;54.45;27.88;;;;;;;;;;4975486;28;20051;-65
2021/11/26 00:16:44;;;;;;;60.33;27.77;;;;;;;;;;4975637;28;20129;-65
2021/11/26 00:19:11;;;;;;;56.28;28.92;;;;;;;;;;4975585;28;20050;-65
2021/11/26 00:21:39;;;;;;;61.92;28.65;;;;;;;;;;4974511;28;20059;-66
2021/11/26 00:24:07;;;;;;;58.55;28.20;;;;;;;;;;4975668;28;20061;-66
2021/11/26 00:26:35;;;;;;;58.72;28.83;;;;;;;;;;4975545;28;20050;-65
2021/11/26 00:29:01;;;;;;;58.47;28.55;;;;;;;;;;4975477;28;20110;-65
2021/11/26 00:31:28;;;;;;;58.25;29.13;;;;;;;;;;4975120;28;20054;-66
2021/11/26 00:33:55;;;;;;;55.20;27.77;;;;;;;;;;4975235;28;20047;-66
2021/11/26 00:36:21;;;;;;;59.08;27.75;;;;;;;;;;4975253;28;20055;-65
2021/11/26 00:38:48;;;;;;;58.25;27.13;;;;;;;;;;4975259;28;20116;-65
2021/11/26 00:41:14;;;;;;;58.83;27.23;;;;;;;;;;4975392;28;20110;-66
2021/11/26 00:43:41;;;;;;;58.63;28.58;;;;;;;;;;4974974;28;20105;-66
2021/11/26 00:46:08;;;;;;;52.40;26.65;;;;;;;;;;4975257;28;20058;-64
2021/11/26 00:48:34;;;;;;;61.40;29.65;;;;;;;;;;4974992;28;20133;-65
2021/11/26 00:51:01;;;;;;;58.15;27.83;;;;;;;;;;4974844;28;20097;-66
2021/11/26 00:53:28;;;;;;;56.25;28.38;;;;;;;;;;4974655;28;20106;-65
2021/11/26 00:55:54;;;;;;;54.22;26.83;;;;;;;;;;4974910;28;20054;-66
2021/11/26 00:58:21;;;;;;;56.20;27.30;;;;;;;;;;4974850;28;20125;-66
2021/11/26 01:00:47;;;;;;;59.28;27.75;;;;;;;;;;4974581;28;20059;-66
2021/11/26 01:03:14;;;;;;;58.70;28.13;;;;;;;;;;4974618;28;20058;-65
2021/11/26 01:05:41;;;;;;;59.72;28.30;;;;;;;;;;4974592;28;20055;-66
2021/11/26 01:08:08;;;;;;;56.88;28.45;;;;;;;;;;4974706;28;20055;-66
2021/11/26 01:10:35;;;;;;;55.00;27.33;;;;;;;;;;4974582;28;20106;-65
2021/11/26 01:13:02;;;;;;;57.38;28.40;;;;;;;;;;4974317;28;20043;-66
2021/11/26 01:15:30;;;;;;;58.53;27.40;;;;;;;;;;4974478;28;20117;-65
2021/11/26 01:17:57;;;;;;;63.17;28.33;;;;;;;;;;4974486;28;20114;-65
2021/11/26 01:20:26;;;;;;;55.95;27.42;;;;;;;;;;4974387;28;20580;-66
2021/11/26 01:22:53;;;;;;;56.78;27.05;;;;;;;;;;4974142;28;20047;-65
2021/11/26 01:25:20;;;;;;;59.22;27.05;;;;;;;;;;4974870;28;20089;-65
2021/11/26 01:27:47;;;;;;;54.33;27.90;;;;;;;;;;4974325;28;20058;-64
2021/11/26 01:30:30;;;;;;;61.35;28.25;;;;;;;;;;4974313;28;20573;-65
2021/11/26 01:32:59;;;;;;;63.67;30.10;;;;;;;;;;4973804;28;20051;-65
2021/11/26 01:35:26;;;;;;;91.30;36.67;;;;;;;;;;4974120;28;20054;-65
2021/11/26 01:37:53;;;;;;;59.40;28.67;;;;;;;;;;4974073;28;20113;-66
2021/11/26 01:40:20;;;;;;;57.20;26.58;;;;;;;;;;4974216;28;20051;-66
2021/11/26 01:42:49;;;;;;;58.40;28.63;;;;;;;;;;4973989;28;20117;-65
2021/11/26 01:45:16;;;;;;;58.50;28.83;;;;;;;;;;4974169;28;20050;-65
2021/11/26 01:47:43;;;;;;;60.22;30.02;;;;;;;;;;4973884;28;20059;-65
2021/11/26 01:50:10;;;;;;;56.35;27.20;;;;;;;;;;4973998;28;20095;-65
2021/11/26 01:52:37;;;;;;;58.83;27.17;;;;;;;;;;4973770;28;20086;-66
2021/11/26 01:55:05;;;;;;;58.15;28.40;;;;;;;;;;4972615;28;20117;-65
2021/11/26 01:57:34;;;;;;;59.05;26.77;;;;;;;;;;4973735;28;20051;-66
2021/11/26 02:00:02;;;;;;;57.25;26.83;;;;;;;;;;4973802;28;20182;-66
2021/11/26 02:02:29;;;;;;;57.70;27.80;;;;;;;;;;4973784;28;20090;-66
2021/11/26 02:04:55;;;;;;;59.00;27.83;;;;;;;;;;4973909;28;20127;-66
2021/11/26 02:07:22;;;;;;;57.53;27.00;;;;;;;;;;4973641;28;20054;-65
2021/11/26 02:09:49;;;;;;;58.05;28.77;;;;;;;;;;4973397;28;20050;-66
2021/11/26 02:12:15;;;;;;;59.85;27.50;;;;;;;;;;4973636;28;20085;-66
2021/11/26 02:14:42;;;;;;;59.72;28.38;;;;;;;;;;4973225;28;20050;-65
2021/11/26 02:17:08;;;;;;;58.72;28.05;;;;;;;;;;4973530;28;20062;-66
2021/11/26 02:19:36;;;;;;;56.03;27.83;;;;;;;;;;4973363;28;20050;-66
2021/11/26 02:22:02;;;;;;;58.15;28.27;;;;;;;;;;4973961;28;20047;-66
2021/11/26 02:24:29;;;;;;;58.90;27.88;;;;;;;;;;4973139;28;20103;-64
2021/11/26 02:26:56;;;;;;;52.45;26.92;;;;;;;;;;4973364;28;20086;-65
2021/11/26 02:29:24;;;;;;;56.67;29.00;;;;;;;;;;4973016;28;20101;-65
2021/11/26 02:31:50;;;;;;;55.55;27.52;;;;;;;;;;4973120;28;20074;-65
2021/11/26 02:34:17;;;;;;;61.55;28.65;;;;;;;;;;4972930;28;20047;-65
2021/11/26 02:36:44;;;;;;;60.10;29.00;;;;;;;;;;4973154;28;20055;-65
2021/11/26 02:39:11;;;;;;;57.65;28.48;;;;;;;;;;4973053;28;20109;-65
2021/11/26 02:41:40;;;;;;;55.70;28.10;;;;;;;;;;4973125;28;20062;-65
2021/11/26 02:44:07;;;;;;;56.85;29.33;;;;;;;;;;4971205;28;20043;-65
2021/11/26 02:46:35;;;;;;;54.33;28.80;;;;;;;;;;4972952;28;20407;-65
2021/11/26 02:49:03;;;;;;;57.30;29.58;;;;;;;;;;4973163;28;20055;-65
2021/11/26 02:51:30;;;;;;;58.15;28.38;;;;;;;;;;4972922;28;20061;-65
2021/11/26 02:53:56;;;;;;;57.75;28.73;;;;;;;;;;4971544;28;20051;-65
2021/11/26 02:56:23;;;;;;;56.03;27.50;;;;;;;;;;4972933;28;20051;-65
2021/11/26 02:58:50;;;;;;;58.17;28.85;;;;;;;;;;4972467;28;20113;-65
2021/11/26 03:01:16;;;;;;;56.83;28.50;;;;;;;;;;4972186;28;20059;-65
2021/11/26 03:03:43;;;;;;;54.58;26.88;;;;;;;;;;4972514;28;20055;-65
2021/11/26 03:06:10;;;;;;;57.72;27.13;;;;;;;;;;4987882;28;20109;-66
2021/11/26 03:08:36;;;;;;;55.92;27.67;;;;;;;;;;4972670;28;20067;-65
2021/11/26 03:11:04;;;;;;;59.80;29.88;;;;;;;;;;4972838;28;20097;-65
2021/11/26 03:13:31;;;;;;;55.53;27.38;;;;;;;;;;4972601;28;20047;-65
2021/11/26 03:15:59;;;;;;;57.42;28.00;;;;;;;;;;4971097;28;20470;-65
2021/11/26 03:18:28;;;;;;;55.97;26.75;;;;;;;;;;4972759;28;20062;-65
2021/11/26 03:20:55;;;;;;;58.60;26.98;;;;;;;;;;4972819;28;20122;-65
2021/11/26 03:23:24;;;;;;;58.40;28.42;;;;;;;;;;4972633;28;20106;-65
2021/11/26 03:25:50;;;;;;;61.53;28.42;;;;;;;;;;4972775;28;20086;-65
2021/11/26 03:28:17;;;;;;;59.72;29.67;;;;;;;;;;4972485;28;20054;-65
2021/11/26 03:30:44;;;;;;;59.22;28.60;;;;;;;;;;4972467;28;20054;-65
2021/11/26 03:33:10;;;;;;;58.42;28.63;;;;;;;;;;4972484;28;20510;-65
2021/11/26 03:35:37;;;;;;;56.97;28.77;;;;;;;;;;4972495;28;20501;-65
2021/11/26 03:38:04;;;;;;;56.85;26.83;;;;;;;;;;4972559;28;20046;-65
2021/11/26 03:40:30;;;;;;;61.33;28.80;;;;;;;;;;4972593;28;20105;-65
2021/11/26 03:42:57;;;;;;;61.03;30.65;;;;;;;;;;4972352;28;20054;-65
2021/11/26 03:45:26;;;;;;;59.70;27.58;;;;;;;;;;4972621;28;20050;-65
2021/11/26 03:47:54;;;;;;;59.65;28.13;;;;;;;;;;4972388;28;20512;-65
2021/11/26 03:50:20;;;;;;;57.72;27.45;;;;;;;;;;4972442;28;20105;-65
2021/11/26 03:52:47;;;;;;;57.25;28.13;;;;;;;;;;4972356;28;20051;-65
2021/11/26 03:55:16;;;;;;;62.80;28.70;;;;;;;;;;4974336;28;20100;-65
2021/11/26 03:57:42;;;;;;;57.78;27.30;;;;;;;;;;4975844;28;20046;-65
2021/11/26 04:00:10;;;;;;;62.38;29.10;;;;;;;;;;4975981;28;20106;-65
2021/11/26 04:02:36;;;;;;;66.05;29.05;;;;;;;;;;4975658;28;20490;-65
2021/11/26 04:05:03;;;;;;;61.05;28.85;;;;;;;;;;4974594;28;20092;-65
2021/11/26 04:07:30;;;;;;;62.80;30.25;;;;;;;;;;4975646;28;20058;-65
2021/11/26 04:09:57;;;;;;;67.43;30.83;;;;;;;;;;4976110;28;20190;-65
2021/11/26 04:12:23;;;;;;;66.43;30.13;;;;;;;;;;4975795;28;20051;-65
2021/11/26 04:14:54;;;;;;;67.57;32.03;;;;;;;;;;4975444;28;20047;-65
2021/11/26 04:17:21;;;;;;;69.00;31.33;;;;;;;;;;4975660;28;20058;-65
2021/11/26 04:19:48;;;;;;;74.68;32.40;;;;;;;;;;4975754;28;20055;-65
2021/11/26 04:22:15;;;;;;;71.40;33.80;;;;;;;;;;4978073;28;20051;-65
2021/11/26 04:24:42;;;;;;;66.50;30.23;;;;;;;;;;4977479;28;20109;-65
2021/11/26 04:27:08;;;;;;;63.10;29.83;;;;;;;;;;4977179;28;20101;-65
2021/11/26 04:29:36;;;;;;;69.47;30.17;;;;;;;;;;4978264;28;20125;-65
2021/11/26 04:32:02;;;;;;;71.53;32.35;;;;;;;;;;4976629;28;20076;-65
2021/11/26 04:34:29;;;;;;;66.85;30.33;;;;;;;;;;4976057;28;20085;-65
2021/11/26 04:36:55;;;;;;;71.15;32.70;;;;;;;;;;4976940;28;20043;-65
2021/11/26 04:39:22;;;;;;;70.60;32.47;;;;;;;;;;4978108;28;20097;-65
2021/11/26 04:41:49;;;;;;;73.03;33.40;;;;;;;;;;4978048;28;20106;-65
2021/11/26 04:44:15;;;;;;;73.07;33.75;;;;;;;;;;4977665;28;20098;-65
2021/11/26 04:46:42;;;;;;;78.50;33.10;;;;;;;;;;4977461;28;20050;-65
2021/11/26 04:49:09;;;;;;;73.13;33.70;;;;;;;;;;4977422;28;20081;-65
2021/11/26 04:51:35;;;;;;;72.18;31.23;;;;;;;;;;4978363;28;20047;-65
2021/11/26 04:54:04;;;;;;;67.07;31.70;;;;;;;;;;4978171;28;20102;-65
2021/11/26 04:56:30;;;;;;;80.70;32.30;;;;;;;;;;4979252;28;20047;-65
2021/11/26 04:58:58;;;;;;;74.63;34.10;;;;;;;;;;4977359;28;20125;-65
2021/11/26 05:01:24;;;;;;;78.53;34.60;;;;;;;;;;4975402;28;20231;-64
2021/11/26 05:03:51;;;;;;;73.18;32.38;;;;;;;;;;4975752;28;20050;-64
2021/11/26 05:06:19;;;;;;;68.10;30.30;;;;;;;;;;4974676;28;20129;-64
2021/11/26 05:08:45;;;;;;;69.72;31.90;;;;;;;;;;4974919;28;20584;-64
2021/11/26 05:11:12;;;;;;;67.90;31.75;;;;;;;;;;4975109;28;20124;-64
2021/11/26 05:13:43;;;;;;;71.05;31.55;;;;;;;;;;4975158;28;20051;-65
2021/11/26 05:16:13;;;;;;;60.63;29.02;;;;;;;;;;4974816;28;20092;-64
2021/11/26 05:18:44;;;;;;;68.68;31.08;;;;;;;;;;4974105;28;20046;-64
2021/11/26 05:21:11;;;;;;;72.38;32.95;;;;;;;;;;4974606;28;20047;-65
2021/11/26 05:23:38;;;;;;;67.95;31.63;;;;;;;;;;4974149;28;20520;-64
2021/11/26 05:26:06;;;;;;;70.57;32.60;;;;;;;;;;4974626;28;20054;-64
2021/11/26 05:28:33;;;;;;;72.40;31.88;;;;;;;;;;4974326;28;20050;-65
2021/11/26 05:31:00;;;;;;;64.55;32.10;;;;;;;;;;4974261;28;20113;-65
2021/11/26 05:33:26;;;;;;;70.88;32.10;;;;;;;;;;4974418;28;20542;-64
2021/11/26 05:35:53;;;;;;;70.72;33.83;;;;;;;;;;4973147;28;20283;-66
2021/11/26 05:38:20;;;;;;;72.00;32.92;;;;;;;;;;4974371;28;20054;-66
2021/11/26 05:40:47;;;;;;;74.65;34.05;;;;;;;;;;4974311;28;20102;-66
2021/11/26 05:43:14;;;;;;;73.13;33.03;;;;;;;;;;4974056;28;20081;-66
2021/11/26 05:45:40;;;;;;;68.70;32.13;;;;;;;;;;4974621;28;20066;-66
2021/11/26 05:48:07;;;;;;;73.88;32.65;;;;;;;;;;4974116;28;20462;-66
2021/11/26 05:50:34;;;;;;;72.25;34.13;;;;;;;;;;4973821;28;20051;-66
2021/11/26 05:53:00;;;;;;;72.53;34.45;;;;;;;;;;4973915;28;20050;-66
2021/11/26 05:55:28;;;;;;;76.90;34.13;;;;;;;;;;4973723;28;20415;-66
2021/11/26 05:57:55;;;;;;;71.00;33.90;;;;;;;;;;4974298;28;20054;-66
2021/11/26 06:00:23;;;;;;;78.07;34.47;;;;;;;;;;4973804;28;20058;-66
2021/11/26 06:02:50;;;;;;;66.88;30.90;;;;;;;;;;4973719;28;20141;-66
2021/11/26 06:05:17;;;;;;;79.63;33.60;;;;;;;;;;4973867;28;20422;-66
2021/11/26 06:07:44;;;;;;;66.85;31.45;;;;;;;;;;4973710;28;20054;-66
2021/11/26 06:10:12;;;;;;;72.13;31.10;;;;;;;;;;4973631;28;20051;-66
2021/11/26 06:12:43;;;;;;;73.07;33.00;;;;;;;;;;4973271;28;20054;-66
2021/11/26 06:15:10;;;;;;;77.78;33.85;;;;;;;;;;4973597;28;20058;-66
2021/11/26 06:17:38;;;;;;;72.63;32.58;;;;;;;;;;4972959;28;20473;-66
2021/11/26 06:20:05;;;;;;;67.72;32.50;;;;;;;;;;4973185;28;20054;-66
2021/11/26 06:22:32;;;;;;;69.97;31.63;;;;;;;;;;4972016;28;20050;-66
2021/11/26 06:24:58;;;;;;;70.95;31.20;;;;;;;;;;4973626;28;20109;-66
2021/11/26 06:27:25;;;;;;;63.15;30.95;;;;;;;;;;4973428;28;20109;-66
2021/11/26 06:29:52;;;;;;;72.15;33.05;;;;;;;;;;4973104;28;20102;-66
2021/11/26 06:32:19;;;;;;;67.32;32.20;;;;;;;;;;4973091;28;20391;-66
2021/11/26 06:34:46;;;;;;;71.30;31.40;;;;;;;;;;4972930;28;20051;-66
2021/11/26 06:37:13;;;;;;;74.15;33.67;;;;;;;;;;4973294;28;20055;-66
2021/11/26 06:39:40;;;;;;;69.15;32.97;;;;;;;;;;4970153;28;20059;-66
2021/11/26 06:42:07;;;;;;;73.90;34.05;;;;;;;;;;4971452;28;20058;-66
2021/11/26 06:44:36;;;;;;;68.30;31.10;;;;;;;;;;4970658;28;20109;-65
2021/11/26 06:47:03;;;;;;;70.80;33.63;;;;;;;;;;4971114;28;20462;-65
2021/11/26 06:49:30;;;;;;;70.50;31.83;;;;;;;;;;4971148;28;20069;-65
2021/11/26 06:51:57;;;;;;;74.13;33.72;;;;;;;;;;4970700;28;20556;-65
2021/11/26 06:54:23;;;;;;;70.18;32.47;;;;;;;;;;4970649;28;20715;-65
2021/11/26 06:56:50;;;;;;;69.10;30.88;;;;;;;;;;4970295;28;20058;-65
2021/11/26 06:59:16;;;;;;;72.68;32.30;;;;;;;;;;4970505;28;20081;-65
2021/11/26 07:01:43;;;;;;;69.15;32.53;;;;;;;;;;4969198;28;20477;-65
2021/11/26 07:04:11;;;;;;;69.18;31.08;;;;;;;;;;4968319;28;20550;-65
2021/11/26 07:06:38;;;;;;;64.53;30.00;;;;;;;;;;4969060;28;20517;-65
2021/11/26 07:09:06;;;;;;;71.22;32.38;;;;;;;;;;4970805;28;20051;-65
2021/11/26 07:11:33;;;;;;;70.57;30.83;;;;;;;;;;4970630;28;20051;-65
2021/11/26 07:14:00;;;;;;;60.72;29.48;;;;;;;;;;4970607;28;20691;-65
2021/11/26 07:16:26;;;;;;;67.15;31.27;;;;;;;;;;4970484;28;20509;-64
2021/11/26 07:18:53;;;;;;;62.38;30.35;;;;;;;;;;4970569;28;20051;-65
2021/11/26 07:21:20;;;;;;;59.10;29.15;;;;;;;;;;4970887;28;20055;-65
2021/11/26 07:23:46;;;;;;;67.30;29.85;;;;;;;;;;4970141;28;20046;-65
2021/11/26 07:26:13;;;;;;;74.70;32.20;;;;;;;;;;4970303;28;20046;-65
2021/11/26 07:28:40;;;;;;;68.45;30.70;;;;;;;;;;4970597;28;20067;-65
2021/11/26 07:31:06;;;;;;;65.45;31.13;;;;;;;;;;4973676;28;20111;-65
2021/11/26 07:33:33;;;;;;;67.22;32.33;;;;;;;;;;4950683;28;20484;-72
2021/11/26 07:36:00;;;;;;;68.30;32.00;;;;;;;;;;4964320;28;20441;-71
2021/11/26 07:38:27;;;;;;;67.95;32.08;;;;;;;;;;4967779;28;20060;-70
2021/11/26 07:40:53;;;;;;;63.63;29.77;;;;;;;;;;4962921;28;20051;-68
2021/11/26 07:43:20;;;;;;;65.43;30.60;;;;;;;;;;4964018;28;20046;-68
2021/11/26 07:45:47;;;;;;;64.72;31.08;;;;;;;;;;4968191;28;20047;-65
2021/11/26 07:48:14;;;;;;;72.93;31.02;;;;;;;;;;4961437;28;20086;-65
2021/11/26 07:50:41;;;;;;;65.47;31.20;;;;;;;;;;4959090;28;20059;-65
2021/11/26 07:53:07;;;;;;;63.95;30.30;;;;;;;;;;4964563;28;20051;-65
2021/11/26 07:55:34;;;;;;;63.20;29.15;;;;;;;;;;4963331;28;20541;-65
2021/11/26 07:58:01;;;;;;;63.95;30.02;;;;;;;;;;4963634;28;20494;-65
2021/11/26 08:00:27;;;;;;;61.00;27.45;;;;;;;;;;4959215;28;20354;-65
2021/11/26 08:02:55;;;;;;;59.80;28.58;;;;;;;;;;4962572;28;20481;-65
2021/11/26 08:05:22;;;;;;;62.72;28.90;;;;;;;;;;4959608;28;20055;-65
2021/11/26 08:07:49;;;;;;;64.15;30.02;;;;;;;;;;4962469;28;20416;-65
2021/11/26 08:10:16;;;;;;;64.47;28.05;;;;;;;;;;4960002;28;20449;-65
2021/11/26 08:12:43;;;;;;;65.07;31.55;;;;;;;;;;4966537;28;20414;-66
2021/11/26 08:15:12;;;;;;;63.30;30.35;;;;;;;;;;4961783;28;20051;-66
2021/11/26 08:17:38;;;;;;;58.47;27.52;;;;;;;;;;4961324;28;20620;-65
2021/11/26 08:20:05;;;;;;;61.65;28.30;;;;;;;;;;4964424;28;20078;-66
2021/11/26 08:22:48;;;;;;;57.42;26.92;;;;;;;;;;4986042;23;20075;-67
2021/11/26 08:25:15;;;;;;;58.10;26.92;;;;;;;;;;4963096;28;20089;-65
2021/11/26 08:27:42;;;;;;;54.10;25.77;;;;;;;;;;4960230;28;20509;-64
2021/11/26 08:30:09;;;;;;;53.97;25.48;;;;;;;;;;4969680;28;20093;-64
2021/11/26 08:32:37;;;;;;;56.90;26.83;;;;;;;;;;4962493;28;20086;-64
2021/11/26 08:35:04;;;;;;;52.80;24.92;;;;;;;;;;4964239;28;20103;-64
2021/11/26 08:37:30;;;;;;;52.03;24.70;;;;;;;;;;4961218;28;20085;-65
2021/11/26 08:39:57;;;;;;;56.65;26.80;;;;;;;;;;4961212;28;20055;-65
2021/11/26 08:42:24;;;;;;;56.08;27.13;;;;;;;;;;4961522;28;20568;-65
2021/11/26 08:44:51;;;;;;;54.97;25.15;;;;;;;;;;4960475;28;20102;-64
2021/11/26 08:47:17;;;;;;;51.90;25.60;;;;;;;;;;4960545;28;20055;-65
2021/11/26 08:49:44;;;;;;;58.40;25.55;;;;;;;;;;4960290;28;20059;-64
2021/11/26 08:52:12;;;;;;;51.50;25.45;;;;;;;;;;4963207;28;20434;-65
2021/11/26 08:54:40;;;;;;;56.38;26.08;;;;;;;;;;4960881;28;20126;-64
2021/11/26 08:57:07;;;;;;;58.28;28.17;;;;;;;;;;4962395;28;20093;-64
2021/11/26 08:59:34;;;;;;;56.50;27.50;;;;;;;;;;4960785;28;20055;-65
2021/11/26 09:02:00;;;;;;;50.03;25.30;;;;;;;;;;4960253;28;20569;-65
2021/11/26 09:04:27;;;;;;;54.20;25.95;;;;;;;;;;4959380;28;20047;-64
2021/11/26 09:06:53;;;;;;;55.47;26.05;;;;;;;;;;4964042;28;20101;-64
2021/11/26 09:09:21;;;;;;;55.42;24.92;;;;;;;;;;4961236;28;20109;-64
2021/11/26 09:11:48;;;;;;;58.28;27.08;;;;;;;;;;4961029;28;20560;-64
2021/11/26 09:14:15;;;;;;;57.35;27.40;;;;;;;;;;4961579;28;20078;-67
2021/11/26 09:16:42;;;;;;;60.45;26.05;;;;;;;;;;4960529;28;20098;-67
2021/11/26 09:19:09;;;;;;;58.35;28.13;;;;;;;;;;4963973;28;20510;-67
2021/11/26 09:21:36;;;;;;;59.55;28.58;;;;;;;;;;4958852;28;20716;-67
2021/11/26 09:24:06;;;;;;;58.90;27.48;;;;;;;;;;4961689;28;20055;-67
2021/11/26 09:26:32;;;;;;;59.33;27.08;;;;;;;;;;4959964;28;20461;-67
2021/11/26 09:28:59;;;;;;;59.67;27.70;;;;;;;;;;4961721;28;20050;-67
2021/11/26 09:31:26;;;;;;;52.78;25.98;;;;;;;;;;4962073;28;20051;-67
2021/11/26 09:33:54;;;;;;;61.63;27.33;;;;;;;;;;4961539;28;20501;-67
2021/11/26 09:36:23;;;;;;;61.97;28.27;;;;;;;;;;4960171;28;20105;-65
2021/11/26 09:38:50;;;;;;;60.42;27.00;;;;;;;;;;4973116;28;20088;-64
2021/11/26 09:41:17;;;;;;;55.97;26.92;;;;;;;;;;4973883;28;20046;-65
2021/11/26 09:44:01;;;;;;;59.70;28.63;;;;;;;;;;4959389;28;20138;-65
2021/11/26 09:46:32;;;;;;;54.92;25.92;;;;;;;;;;4955097;28;20337;-64
2021/11/26 09:48:58;;;;;;;58.35;28.17;;;;;;;;;;4954707;28;20102;-64
2021/11/26 09:51:25;;;;;;;50.80;25.27;;;;;;;;;;4954804;28;20474;-64
2021/11/26 09:53:52;;;;;;;58.65;27.10;;;;;;;;;;4954471;28;20557;-64
2021/11/26 09:56:19;;;;;;;57.65;26.80;;;;;;;;;;4970812;28;20054;-64
2021/11/26 09:58:45;;;;;;;56.28;26.67;;;;;;;;;;4973961;28;20110;-65
2021/11/26 10:01:12;;;;;;;57.30;26.23;;;;;;;;;;4973854;28;20054;-65
2021/11/26 10:03:46;;;;;;;56.92;26.25;;;;;;;;;;4973601;28;20506;-64
2021/11/26 10:06:37;;;;;;;54.30;25.30;;;;;;;;;;4972711;28;20055;-65
2021/11/26 10:09:10;;;;;;;56.00;26.80;;;;;;;;;;4954402;28;20098;-64
2021/11/26 10:11:48;;;;;;;54.83;26.25;;;;;;;;;;4954368;28;20051;-64
2021/11/26 10:14:21;;;;;;;57.70;27.45;;;;;;;;;;4954294;28;20059;-64
2021/11/26 10:17:03;;;;;;;52.03;24.95;;;;;;;;;;4953991;28;20051;-65
2021/11/26 10:19:36;;;;;;;56.72;25.98;;;;;;;;;;4966493;28;20050;-64
2021/11/26 10:22:19;;;;;;;57.72;26.55;;;;;;;;;;4973477;28;20090;-65
2021/11/26 10:25:10;;;;;;;;;;;;;;;;;;4973614;28;20054;-64
2021/11/26 10:27:38;;;;;;;50.75;24.27;;;;;;;;;;4973688;28;19926;-65
2021/11/26 10:30:35;;;;;;;53.92;24.65;;;;;;;;;;4973708;28;20051;-65
2021/11/26 10:33:09;;;;;;;51.92;24.65;;;;;;;;;;5004661;28;20061;-66
2021/11/26 10:35:42;;;;;;;57.00;27.02;;;;;;;;;;4967079;28;20102;-65
2021/11/26 10:38:35;;;;;;;58.92;26.30;;;;;;;;;;4963206;28;20047;-64
2021/11/26 10:41:04;;;;;;;61.28;27.02;;;;;;;;;;4967259;28;20568;-64
2021/11/26 11:00:12;;;;;;;52.35;25.42;;;;;;;;;;4959668;28;20516;-68
2021/11/26 11:02:41;;;;;;;53.90;25.58;;;;;;;;;;4959233;28;20057;-68
2021/11/26 11:05:11;;;;;;;54.13;25.85;;;;;;;;;;4958226;28;20422;-66
2021/11/26 11:07:43;;;;;;;55.40;24.92;;;;;;;;;;4960108;28;20094;-68
2021/11/26 11:10:15;;;;;;;52.20;24.70;;;;;;;;;;4958790;28;20047;-67
2021/11/26 11:12:42;;;;;;;51.97;25.45;;;;;;;;;;4957795;28;20058;-67
2021/11/26 11:15:10;;;;;;;54.30;25.27;;;;;;;;;;4959880;28;20046;-68
2021/11/26 11:17:38;;;;;;;56.47;25.95;;;;;;;;;;4963756;28;20046;-69
2021/11/26 11:20:06;;;;;;;56.78;26.40;;;;;;;;;;4962532;28;20051;-68
2021/11/26 11:22:35;;;;;;;56.22;25.25;;;;;;;;;;4956148;28;20141;-68
2021/11/26 11:25:03;;;;;;;50.67;24.33;;;;;;;;;;4960242;28;20462;-69
2021/11/26 11:27:30;;;;;;;51.10;24.52;;;;;;;;;;4957962;28;20051;-69
2021/11/26 11:29:57;;;;;;;54.65;24.73;;;;;;;;;;4960490;28;20059;-67
2021/11/26 11:32:26;;;;;;;56.95;25.05;;;;;;;;;;4961979;28;20106;-68
2021/11/26 11:34:54;;;;;;;55.15;26.63;;;;;;;;;;4962027;28;20047;-67
2021/11/26 11:37:28;;;;;;;54.78;25.77;;;;;;;;;;4959708;28;20059;-66
2021/11/26 11:40:02;;;;;;;60.60;26.77;;;;;;;;;;4962483;28;20110;-67
2021/11/26 11:42:28;;;;;;;59.20;27.65;;;;;;;;;;4958372;28;20071;-69
2021/11/26 11:44:57;;;;;;;56.20;26.48;;;;;;;;;;4958813;28;20460;-68
2021/11/26 11:47:25;;;;;;;60.75;25.02;;;;;;;;;;4960224;28;20047;-67
2021/11/26 11:50:14;;;;;;;59.30;26.27;;;;;;;;;;4959028;28;20054;-68
2021/11/26 11:52:43;;;;;;;55.97;26.17;;;;;;;;;;4964699;28;20059;-70
2021/11/26 11:55:40;;;;;;;53.95;25.27;;;;;;;;;;4960833;28;20051;-70
2021/11/26 11:58:34;;;;;;;53.13;25.42;;;;;;;;;;4955122;28;20130;-64
2021/11/26 12:01:01;;;;;;;57.78;26.30;;;;;;;;;;4960897;28;20051;-65
2021/11/26 12:03:28;;;;;;;54.00;25.75;;;;;;;;;;4957276;28;20098;-66
2021/11/26 12:06:00;;;;;;;50.88;24.83;;;;;;;;;;4959652;28;20050;-65
2021/11/26 12:08:27;;;;;;;54.75;25.55;;;;;;;;;;4960781;28;20050;-66
2021/11/26 12:10:57;;;;;;;55.35;26.73;;;;;;;;;;4961385;28;20498;-64
2021/11/26 12:13:30;;;;;;;48.47;23.75;;;;;;;;;;4960006;28;20506;-68
2021/11/26 12:16:12;;;;;;;;;;;;;;;;;;4963527;28;20078;-67
2021/11/26 12:18:40;;;;;;;53.13;22.90;;;;;;;;;;4964318;28;19981;-64
2021/11/26 12:21:07;;;;;;;52.00;23.35;;;;;;;;;;4964725;28;20051;-66
2021/11/26 12:23:58;;;;;;;51.08;24.17;;;;;;;;;;4960265;28;20055;-68
2021/11/26 12:26:30;;;;;;;47.08;21.75;;;;;;;;;;4964188;28;20103;-68
2021/11/26 12:29:03;;;;;;;44.47;21.35;;;;;;;;;;4965469;28;20061;-67
2021/11/26 12:31:32;;;;;;;45.97;21.70;;;;;;;;;;4968981;28;20073;-68
2021/11/26 12:34:14;;;;;;;48.55;22.60;;;;;;;;;;4964060;28;20078;-71
2021/11/26 12:36:40;;;;;;;42.35;21.27;;;;;;;;;;4962417;28;20477;-66
2021/11/26 12:39:14;;;;;;;38.45;20.08;;;;;;;;;;4964761;28;20101;-65
2021/11/26 12:41:41;;;;;;;;;;;;;;;;;;4966758;28;20054;-66
2021/11/26 12:44:15;;;;;;;46.33;22.00;;;;;;;;;;4961720;28;19926;-65
2021/11/26 12:46:42;;;;;;;46.10;21.48;;;;;;;;;;4963027;28;20106;-65
2021/11/26 12:51:51;;;;;;;47.13;22.05;;;;;;;;;;4965370;28;20055;-64
2021/11/26 12:54:27;;;;;;;45.45;22.17;;;;;;;;;;4963819;28;20497;-69
2021/11/26 12:56:55;;;;;;;44.15;21.02;;;;;;;;;;4959838;28;20394;-68
2021/11/26 12:59:37;;;;;;;47.47;21.80;;;;;;;;;;4963188;28;20103;-67
2021/11/26 13:02:06;;;;;;;43.72;21.25;;;;;;;;;;4964590;28;20410;-70
2021/11/26 13:04:51;;;;;;;42.65;21.67;;;;;;;;;;4966553;28;20482;-69
2021/11/26 13:07:22;;;;;;;47.53;21.67;;;;;;;;;;4960837;28;20462;-68
2021/11/26 13:09:58;;;;;;;40.20;20.13;;;;;;;;;;4963885;28;20055;-68
2021/11/26 13:12:35;;;;;;;43.38;20.98;;;;;;;;;;4959413;28;20110;-68
2021/11/26 13:15:34;;;;;;;40.10;20.77;;;;;;;;;;4963845;28;20047;-67
2021/11/26 13:18:22;;;;;;;41.30;20.27;;;;;;;;;;4960473;28;20486;-67
2021/11/26 13:21:01;;;;;;;42.88;20.45;;;;;;;;;;4962132;28;20506;-65
2021/11/26 13:23:30;;;;;;;41.50;18.50;;;;;;;;;;4962747;28;20071;-67
2021/11/26 13:25:59;;;;;;;37.78;18.50;;;;;;;;;;4963717;28;20047;-69
2021/11/26 13:28:34;;;;;;;44.03;20.48;;;;;;;;;;4961099;28;20055;-70
2021/11/26 13:31:18;;;;;;;38.03;17.85;;;;;;;;;;4977257;28;20051;-67
2021/11/26 13:33:46;;;;;;;41.97;19.02;;;;;;;;;;4962478;28;20073;-68
2021/11/26 13:36:19;;;;;;;38.88;18.20;;;;;;;;;;4960196;28;20058;-68
2021/11/26 13:38:51;;;;;;;36.72;18.35;;;;;;;;;;4963217;28;20115;-69
2021/11/26 13:41:23;;;;;;;39.38;19.42;;;;;;;;;;4962889;28;20051;-68
2021/11/26 13:43:55;;;;;;;37.75;18.33;;;;;;;;;;4958904;28;20522;-69
2021/11/26 13:46:25;;;;;;;40.20;19.00;;;;;;;;;;4961459;28;20105;-67
2021/11/26 13:48:54;;;;;;;42.88;20.52;;;;;;;;;;4960071;28;20050;-67
2021/11/26 13:51:24;;;;;;;43.88;18.92;;;;;;;;;;4977275;28;20054;-69
2021/11/26 13:53:52;;;;;;;41.35;19.90;;;;;;;;;;4959148;28;20043;-68
2021/11/26 13:56:27;;;;;;;43.95;20.20;;;;;;;;;;4959833;28;20122;-70
2021/11/26 13:58:58;;;;;;;40.17;19.85;;;;;;;;;;4959584;28;20046;-69
2021/11/26 14:01:30;;;;;;;41.88;19.73;;;;;;;;;;4961440;28;20055;-70
2021/11/26 14:04:00;;;;;;;36.70;18.38;;;;;;;;;;4962079;28;20047;-70
2021/11/26 14:06:55;;;;;;;38.30;19.35;;;;;;;;;;4965173;28;20240;-69
2021/11/26 14:09:22;;;;;;;35.88;18.45;;;;;;;;;;4962268;28;20047;-68
2021/11/26 14:11:51;;;;;;;39.30;18.08;;;;;;;;;;4963839;28;20106;-70
2021/11/26 14:14:20;;;;;;;34.78;16.85;;;;;;;;;;4960043;28;20055;-69
2021/11/26 14:16:55;;;;;;;34.53;15.85;;;;;;;;;;4942118;28;20145;-67
2021/11/26 14:19:40;;;;;;;32.03;16.45;;;;;;;;;;4963183;28;20054;-68
2021/11/26 14:22:19;;;;;;;33.22;16.08;;;;;;;;;;4964167;28;20141;-68
2021/11/26 14:25:05;;;;;;;35.10;17.52;;;;;;;;;;4962004;28;20051;-68
2021/11/26 14:27:35;;;;;;;34.65;16.48;;;;;;;;;;4958935;28;20066;-68
2021/11/26 14:30:08;;;;;;;29.42;16.17;;;;;;;;;;4964737;28;20046;-68
2021/11/26 14:32:36;;;;;;;;;;;;;;;;;;4962137;28;20047;-68
2021/11/26 14:35:12;;;;;;;33.15;16.05;;;;;;;;;;4958689;28;19958;-66
2021/11/26 14:37:41;;;;;;;26.85;13.48;;;;;;;;;;4960369;28;20059;-69
2021/11/26 14:40:23;;;;;;;22.92;13.05;;;;;;;;;;4959759;28;20055;-69
2021/11/26 14:43:11;;;;;;;26.00;14.25;;;;;;;;;;4958030;28;20051;-71
2021/11/26 14:45:46;;;;;;;23.67;12.80;;;;;;;;;;4962072;28;20047;-70
2021/11/26 14:48:30;;;;;;;25.15;12.70;;;;;;;;;;4958183;28;20143;-70
2021/11/26 14:51:14;;;;;;;22.13;12.40;;;;;;;;;;4964344;28;20098;-71